Time;durP1;ratioP1;P1;durP2;ratioP2;P2;SDS_P1;SDS_P2;PMS_P1;PMS_P2;Temp;Humidity;BMP_temperature;BMP_pressure;BME280_temperature;BME280_humidity;BME280_pressure;Samples;Min_cycle;Max_cycle;Signal;HPM_P1;HPM_P2
2023/01/22 00:00:27;;;;;;;37.70;14.65;;;;;;;-3.18;100.00;103270.94;5028984;28;20048;-74
2023/01/22 00:02:54;;;;;;;39.40;16.50;;;;;;;-3.17;100.00;103274.50;5032985;28;20041;-74
2023/01/22 00:05:20;;;;;;;44.65;16.83;;;;;;;-3.17;100.00;103277.16;5031574;28;20116;-74
2023/01/22 00:07:45;;;;;;;46.15;17.35;;;;;;;-3.15;100.00;103272.78;5031262;28;20104;-75
2023/01/22 00:10:11;;;;;;;37.75;15.18;;;;;;;-3.16;100.00;103277.22;5031530;28;20030;-74
2023/01/22 00:12:36;;;;;;;37.38;15.02;;;;;;;-3.15;100.00;103273.69;5030883;28;20044;-75
2023/01/22 00:15:02;;;;;;;45.88;15.45;;;;;;;-3.13;100.00;103284.34;5029661;28;20041;-74
2023/01/22 00:17:28;;;;;;;37.95;15.35;;;;;;;-3.14;100.00;103280.78;5028329;28;20037;-74
2023/01/22 00:19:54;;;;;;;47.25;17.10;;;;;;;-3.09;100.00;103286.22;5030697;28;20484;-75
2023/01/22 00:22:19;;;;;;;41.95;16.73;;;;;;;-3.10;100.00;103280.00;5031043;28;20048;-74
2023/01/22 00:24:44;;;;;;;39.05;15.40;;;;;;;-3.07;100.00;103279.19;5029279;28;20140;-74
2023/01/22 00:27:10;;;;;;;40.67;16.95;;;;;;;-3.07;100.00;103279.19;5029583;28;20179;-74
2023/01/22 00:29:35;;;;;;;45.75;17.73;;;;;;;-3.05;100.00;103276.56;5029805;28;20064;-75
2023/01/22 00:32:01;;;;;;;40.10;16.30;;;;;;;-3.05;100.00;103277.44;5033702;28;20037;-75
2023/01/22 00:34:27;;;;;;;39.28;16.98;;;;;;;-3.05;100.00;103271.22;5029831;28;20416;-74
2023/01/22 00:36:52;;;;;;;45.85;18.65;;;;;;;-3.05;100.00;103266.81;5012760;28;20037;-74
2023/01/22 00:39:17;;;;;;;40.45;17.25;;;;;;;-3.06;100.00;103264.13;5030255;28;20111;-74
2023/01/22 00:41:43;;;;;;;44.40;16.52;;;;;;;-3.09;100.00;103265.81;5039994;28;20049;-74
2023/01/22 00:44:08;;;;;;;38.30;16.85;;;;;;;-3.11;100.00;103253.34;5029173;28;20365;-74
2023/01/22 00:46:34;;;;;;;36.78;15.18;;;;;;;-3.11;100.00;103258.69;5030451;28;20030;-75
2023/01/22 00:49:01;;;;;;;42.92;16.58;;;;;;;-3.15;100.00;103263.03;5030286;28;20083;-75
2023/01/22 00:51:27;;;;;;;44.70;16.25;;;;;;;-3.18;100.00;103270.03;5029087;28;20034;-74
2023/01/22 00:53:52;;;;;;;37.35;16.83;;;;;;;-3.20;100.00;103258.47;5030324;28;20465;-74
2023/01/22 00:56:17;;;;;;;41.00;16.95;;;;;;;-3.22;100.00;103260.19;5012602;28;20033;-74
2023/01/22 00:58:43;;;;;;;38.78;16.02;;;;;;;-3.24;100.00;103262.81;5028618;28;20030;-77
2023/01/22 01:01:08;;;;;;;39.63;16.10;;;;;;;-3.24;100.00;103257.50;5028952;28;20100;-74
2023/01/22 01:03:35;;;;;;;40.58;17.20;;;;;;;-3.25;100.00;103253.03;5011908;28;20061;-73
2023/01/22 01:06:12;;;;;;;40.40;16.13;;;;;;;-3.26;100.00;103247.69;5028800;28;20037;-74
2023/01/22 01:08:41;;;;;;;46.05;18.13;;;;;;;-3.25;100.00;103250.38;5030026;28;20044;-73
2023/01/22 01:11:10;;;;;;;42.03;16.02;;;;;;;-3.31;100.00;103238.66;5028571;28;20049;-75
2023/01/22 01:13:38;;;;;;;37.63;16.75;;;;;;;-3.31;100.00;103242.25;5049917;28;20627;-74
2023/01/22 01:16:06;;;;;;;41.40;16.80;;;;;;;-3.31;100.00;103241.34;5023535;28;20041;-74
2023/01/22 01:18:33;;;;;;;39.65;16.48;;;;;;;-3.34;100.00;103244.84;5038371;28;20040;-74
2023/01/22 01:20:59;;;;;;;43.92;15.95;;;;;;;-3.36;100.00;103242.16;5029720;28;20033;-74
2023/01/22 01:23:27;;;;;;;40.10;16.80;;;;;;;-3.36;100.00;103242.16;5029684;28;20037;-73
2023/01/22 01:25:52;;;;;;;38.42;16.83;;;;;;;-3.38;100.00;103243.88;5028539;28;20030;-74
2023/01/22 01:28:18;;;;;;;40.83;17.67;;;;;;;-3.38;100.00;103237.66;5029558;28;20033;-74
2023/01/22 01:30:44;;;;;;;40.95;16.42;;;;;;;-3.41;100.00;103246.44;5028320;28;20420;-74
2023/01/22 01:33:10;;;;;;;43.25;16.70;;;;;;;-3.45;100.00;103241.00;5034027;28;20099;-74
2023/01/22 01:35:36;;;;;;;35.65;15.13;;;;;;;-3.49;100.00;103231.19;5028399;28;20187;-73
2023/01/22 01:38:01;;;;;;;39.63;16.95;;;;;;;-3.50;100.00;103219.59;5029607;28;20025;-73
2023/01/22 01:40:27;;;;;;;35.13;16.38;;;;;;;-3.50;100.00;103221.38;5036108;28;20133;-74
2023/01/22 01:42:53;;;;;;;43.00;16.38;;;;;;;-3.43;100.00;103239.28;5047580;28;20049;-76
2023/01/22 01:45:20;;;;;;;40.13;15.93;;;;;;;-3.43;100.00;103223.34;5030418;28;20462;-74
2023/01/22 01:47:49;;;;;;;39.55;16.42;;;;;;;-3.39;100.00;103222.53;5036379;28;20591;-73
2023/01/22 01:50:17;;;;;;;35.25;15.18;;;;;;;-3.44;100.00;103211.78;5028088;28;20402;-74
2023/01/22 01:52:43;;;;;;;38.50;14.65;;;;;;;-3.44;100.00;103206.47;5033251;28;20429;-74
2023/01/22 01:55:10;;;;;;;35.45;15.18;;;;;;;-3.43;100.00;103196.72;5033979;28;20083;-73
2023/01/22 01:57:37;;;;;;;38.78;16.27;;;;;;;-3.42;100.00;103203.84;5016040;28;20038;-73
2023/01/22 02:00:09;;;;;;;37.05;15.68;;;;;;;-3.38;100.00;103189.75;5032828;28;20072;-74
2023/01/22 02:02:40;;;;;;;37.15;15.38;;;;;;;-3.34;100.00;103192.50;5033739;28;20048;-73
2023/01/22 02:05:07;;;;;;;38.63;15.65;;;;;;;-3.37;100.00;103189.78;5033272;28;20484;-73
2023/01/22 02:07:33;;;;;;;34.58;14.02;;;;;;;-3.38;100.00;103197.72;5032105;28;20477;-74
2023/01/22 02:09:59;;;;;;;29.45;13.60;;;;;;;-3.41;100.00;103193.22;5031682;28;20034;-74
2023/01/22 02:12:25;;;;;;;36.70;16.15;;;;;;;-3.36;100.00;103194.25;5033063;28;20119;-76
2023/01/22 02:14:51;;;;;;;36.78;14.55;;;;;;;-3.31;100.00;103190.78;5031788;28;20041;-73
2023/01/22 02:17:21;;;;;;;36.10;15.85;;;;;;;-3.29;100.00;103191.72;5031548;28;20041;-75
2023/01/22 02:19:49;;;;;;;;;;;;;;;-3.28;100.00;103183.75;5032305;28;20037;-74
2023/01/22 02:22:19;;;;;;;34.63;13.93;;;;;;;-3.27;100.00;103179.34;5033149;28;20399;-75
2023/01/22 02:24:45;;;;;;;36.80;15.40;;;;;;;-3.25;100.00;103178.50;5048265;28;20056;-74
2023/01/22 02:27:11;;;;;;;35.67;15.05;;;;;;;-3.23;100.00;103182.09;5049979;28;20550;-74
2023/01/22 02:29:36;;;;;;;36.97;15.82;;;;;;;-3.20;100.00;103178.63;5052693;28;20511;-73
2023/01/22 02:32:03;;;;;;;29.92;14.52;;;;;;;-3.16;100.00;103175.16;5037593;28;20090;-74
2023/01/22 02:34:28;;;;;;;33.03;13.70;;;;;;;-3.14;100.00;103187.63;5031706;28;20464;-74
2023/01/22 02:36:54;;;;;;;35.60;14.48;;;;;;;-2.99;100.00;103195.03;5014971;28;20155;-74
2023/01/22 02:39:19;;;;;;;32.45;14.15;;;;;;;-2.95;100.00;103193.34;5031332;28;20037;-74
2023/01/22 02:41:45;;;;;;;36.58;15.15;;;;;;;-2.90;100.00;103178.34;5031183;28;20045;-74
2023/01/22 02:44:11;;;;;;;30.45;13.05;;;;;;;-2.90;100.00;103181.03;5031624;28;20056;-74
2023/01/22 02:46:37;;;;;;;32.38;15.50;;;;;;;-2.87;100.00;103187.31;5042275;28;20033;-75
2023/01/22 02:49:03;;;;;;;29.55;13.95;;;;;;;-2.80;100.00;103192.75;5014916;28;20056;-74
2023/01/22 02:51:31;;;;;;;33.40;14.50;;;;;;;-2.78;100.00;103178.63;5014909;28;20120;-74
2023/01/22 02:53:56;;;;;;;32.92;13.82;;;;;;;-2.75;100.00;103178.69;5032281;28;20112;-74
2023/01/22 02:56:22;;;;;;;31.50;14.75;;;;;;;-2.70;100.00;103171.69;5031142;28;20033;-74
2023/01/22 02:58:48;;;;;;;29.67;13.85;;;;;;;-2.61;100.00;103186.97;5030919;28;20033;-74
2023/01/22 03:01:21;;;;;;;29.00;13.63;;;;;;;-2.54;100.00;103185.31;5030913;28;20064;-75
2023/01/22 03:03:55;;;;;;;33.78;14.38;;;;;;;-2.47;100.00;103188.13;5030108;28;20057;-74
2023/01/22 03:06:23;;;;;;;34.85;14.98;;;;;;;-2.37;100.00;103186.53;5030768;28;20156;-75
2023/01/22 03:08:57;;;;;;;25.98;11.55;;;;;;;-2.29;100.00;103176.88;5030828;28;20570;-74
2023/01/22 03:11:25;;;;;;;31.20;14.02;;;;;;;-2.24;100.00;103190.28;5030750;28;20033;-75
2023/01/22 03:22:11;;;;;;;30.65;14.77;;;;;;;-2.14;100.00;103181.63;5030740;28;20034;-74
2023/01/22 03:24:37;;;;;;;32.88;13.82;;;;;;;-2.12;100.00;103186.09;5031807;28;20037;-75
2023/01/22 03:27:03;;;;;;;28.10;12.13;;;;;;;-2.09;100.00;103182.59;5039675;28;20437;-75
2023/01/22 03:29:30;;;;;;;30.98;14.27;;;;;;;-2.11;100.00;103186.97;5050224;28;20040;-74
2023/01/22 03:31:55;;;;;;;34.25;15.68;;;;;;;-2.09;100.00;103179.94;5046874;28;20550;-75
2023/01/22 03:34:23;;;;;;;27.80;14.80;;;;;;;-2.10;100.00;103168.38;5033232;28;20060;-75
2023/01/22 03:36:51;;;;;;;30.88;13.65;;;;;;;-2.10;100.00;103175.44;5030512;28;20532;-75
2023/01/22 03:39:17;;;;;;;31.02;14.48;;;;;;;-2.12;100.00;103162.09;5030109;28;20060;-74
2023/01/22 03:41:43;;;;;;;29.20;14.13;;;;;;;-2.13;100.00;103168.31;5030098;28;20146;-75
2023/01/22 03:44:10;;;;;;;36.15;14.75;;;;;;;-2.14;100.00;103154.94;5030551;28;20037;-74
2023/01/22 03:46:38;;;;;;;26.35;14.02;;;;;;;-2.14;100.00;103154.94;5030324;28;20507;-75
2023/01/22 03:49:04;;;;;;;30.48;13.27;;;;;;;-2.16;100.00;103154.91;5043034;28;20044;-74
2023/01/22 03:51:30;;;;;;;33.17;15.43;;;;;;;-2.19;100.00;103152.22;5049899;28;20095;-74
2023/01/22 03:53:57;;;;;;;31.20;14.68;;;;;;;-2.21;100.00;103151.25;5051205;28;20040;-74
2023/01/22 03:56:24;;;;;;;37.95;15.23;;;;;;;-2.26;100.00;103150.28;5036641;28;20223;-74
2023/01/22 03:58:53;;;;;;;34.95;14.98;;;;;;;-2.30;100.00;103153.75;5029801;28;20038;-74
2023/01/22 04:01:24;;;;;;;31.65;15.82;;;;;;;-2.37;100.00;103152.78;5029560;28;20030;-74
2023/01/22 04:03:51;;;;;;;32.45;14.20;;;;;;;-2.41;100.00;103156.25;5040969;28;20039;-74
2023/01/22 04:06:17;;;;;;;30.95;14.43;;;;;;;-2.46;100.00;103155.25;5033643;28;20064;-75
2023/01/22 04:08:45;;;;;;;29.73;12.20;;;;;;;-2.49;100.00;103154.31;5029893;28;20043;-74
2023/01/22 04:11:12;;;;;;;31.38;13.60;;;;;;;-2.53;100.00;103157.78;5030046;28;20069;-74
2023/01/22 04:13:39;;;;;;;28.38;13.73;;;;;;;-2.56;100.00;103150.66;5013355;28;20092;-74
2023/01/22 04:16:06;;;;;;;30.15;13.77;;;;;;;-2.57;100.00;103151.47;5028974;28;20508;-74
2023/01/22 04:18:50;;;;;;;30.35;13.18;;;;;;;-2.59;100.00;103159.47;5031203;28;20041;-75
2023/01/22 04:21:35;;;;;;;29.50;14.65;;;;;;;-2.53;100.00;103152.44;5015365;28;20114;-74
2023/01/22 04:24:03;;;;;;;30.52;14.20;;;;;;;-2.50;100.00;103160.50;5029374;28;20033;-74
2023/01/22 04:26:30;;;;;;;27.50;13.25;;;;;;;-2.44;100.00;103164.19;5029332;28;20476;-74
2023/01/22 04:28:56;;;;;;;26.25;12.18;;;;;;;-2.36;100.00;103161.66;5029130;28;20040;-74
2023/01/22 04:31:23;;;;;;;30.25;13.25;;;;;;;-2.31;100.00;103151.97;5029075;28;20401;-74
2023/01/22 04:34:07;;;;;;;26.92;12.15;;;;;;;-2.26;100.00;103157.38;5030355;28;20045;-74
2023/01/22 04:36:38;;;;;;;33.75;15.55;;;;;;;-2.23;100.00;103149.47;5029535;28;20042;-74
2023/01/22 04:39:04;;;;;;;27.30;12.85;;;;;;;-2.18;100.00;103148.66;5012543;28;20484;-75
2023/01/22 04:41:29;;;;;;;28.48;13.30;;;;;;;-2.13;100.00;103149.63;5046920;28;20063;-74
2023/01/22 04:43:55;;;;;;;34.85;13.57;;;;;;;-2.10;100.00;103155.03;5048629;28;20132;-74
2023/01/22 04:46:23;;;;;;;30.05;12.50;;;;;;;-2.09;100.00;103142.59;5045410;28;20060;-74
2023/01/22 04:48:48;;;;;;;27.13;11.55;;;;;;;-2.01;100.00;103140.94;5028813;28;20103;-74
2023/01/22 04:51:15;;;;;;;34.38;13.93;;;;;;;-2.04;100.00;103143.56;5030220;28;20067;-74
2023/01/22 04:53:40;;;;;;;26.05;12.20;;;;;;;-1.98;100.00;103146.31;5029160;28;20029;-74
2023/01/22 04:56:06;;;;;;;30.40;11.80;;;;;;;-2.01;100.00;103140.03;5028662;28;20500;-74
2023/01/22 04:58:32;;;;;;;38.97;13.60;;;;;;;-1.96;100.00;103141.00;5028681;28;20155;-74
2023/01/22 05:00:58;;;;;;;28.08;13.15;;;;;;;-1.92;100.00;103146.41;5028373;28;20026;-74
2023/01/22 05:03:24;;;;;;;29.77;14.60;;;;;;;-1.95;100.00;103141.06;5036995;28;20473;-74
2023/01/22 05:05:49;;;;;;;24.42;12.50;;;;;;;-1.95;100.00;103141.06;5028617;28;20455;-74
2023/01/22 05:08:16;;;;;;;27.25;11.85;;;;;;;-1.95;100.00;103151.72;5028775;28;20056;-74
2023/01/22 05:10:42;;;;;;;24.27;11.75;;;;;;;-1.90;100.00;103147.34;5028773;28;20452;-74
2023/01/22 05:13:11;;;;;;;28.50;11.38;;;;;;;-1.87;100.00;103146.50;5045789;28;20039;-74
2023/01/22 05:15:37;;;;;;;18.83;10.13;;;;;;;-1.84;100.00;103143.88;5048294;28;20085;-74
2023/01/22 05:18:07;;;;;;;30.50;11.43;;;;;;;-1.88;100.00;103145.59;5016546;28;20033;-75
2023/01/22 05:20:34;;;;;;;23.35;12.15;;;;;;;-1.89;100.00;103141.13;5028262;28;20124;-74
2023/01/22 05:23:00;;;;;;;25.92;11.85;;;;;;;-1.89;100.00;103132.25;5028248;28;20138;-74
2023/01/22 05:25:27;;;;;;;22.33;9.98;;;;;;;-1.90;100.00;103149.13;5012095;28;20033;-74
2023/01/22 05:27:54;;;;;;;27.92;12.18;;;;;;;-1.92;100.00;103153.53;5027988;28;20028;-74
2023/01/22 05:30:30;;;;;;;23.23;10.57;;;;;;;-1.92;100.00;103150.84;5028272;28;20439;-74
2023/01/22 05:32:59;;;;;;;25.92;11.48;;;;;;;-1.96;100.00;103152.59;5028199;28;20032;-75
2023/01/22 05:35:25;;;;;;;27.27;12.00;;;;;;;-1.92;100.00;103158.84;5028339;28;20396;-74
2023/01/22 05:37:51;;;;;;;24.35;12.63;;;;;;;-1.92;100.00;103154.41;5027779;28;20116;-75
2023/01/22 05:40:17;;;;;;;22.33;11.20;;;;;;;-1.90;100.00;103159.78;5028094;28;20037;-75
2023/01/22 05:42:43;;;;;;;22.98;10.70;;;;;;;-1.92;100.00;103164.19;5028030;28;20114;-74
2023/01/22 05:45:10;;;;;;;24.20;10.57;;;;;;;-1.88;100.00;103166.03;5028463;28;20044;-74
2023/01/22 05:47:43;;;;;;;23.25;10.65;;;;;;;-1.87;100.00;103163.38;5036294;28;20685;-74
2023/01/22 05:50:24;;;;;;;27.48;11.65;;;;;;;-1.88;100.00;103177.59;5029833;28;20063;-74
2023/01/22 05:52:59;;;;;;;24.27;10.75;;;;;;;-1.85;100.00;103174.09;5028578;28;20038;-75
2023/01/22 05:55:25;;;;;;;25.33;11.45;;;;;;;-1.85;100.00;103176.78;5031320;28;20074;-74
2023/01/22 05:57:50;;;;;;;22.98;12.15;;;;;;;-1.82;100.00;103172.41;5049287;28;20393;-75
2023/01/22 06:00:17;;;;;;;13.48;7.43;;;;;;;-1.81;100.00;103184.84;5031270;28;20044;-74
2023/01/22 06:02:45;;;;;;;25.75;12.20;;;;;;;-1.80;100.00;103181.31;5035253;28;20033;-74
2023/01/22 06:05:12;;;;;;;18.83;9.43;;;;;;;-1.80;100.00;103177.75;5028599;28;20038;-74
2023/01/22 06:07:38;;;;;;;26.05;13.98;;;;;;;-1.76;100.00;103178.69;5028219;28;20718;-74
2023/01/22 06:10:04;;;;;;;29.10;11.05;;;;;;;-1.78;100.00;103175.97;5027766;28;20120;-74
2023/01/22 06:12:33;;;;;;;32.33;12.82;;;;;;;-1.79;100.00;103179.53;5028130;28;20519;-74
2023/01/22 06:14:58;;;;;;;22.25;9.52;;;;;;;-1.75;100.00;103175.16;5027920;28;20030;-75
2023/01/22 06:17:24;;;;;;;23.92;11.85;;;;;;;-1.75;100.00;103169.81;5038275;28;20038;-75
2023/01/22 06:19:54;;;;;;;27.33;11.90;;;;;;;-1.77;100.00;103167.13;5044362;28;20072;-75
2023/01/22 06:22:19;;;;;;;23.67;11.07;;;;;;;-1.77;100.00;103171.53;5027923;28;20056;-74
2023/01/22 06:24:55;;;;;;;23.58;11.70;;;;;;;-1.77;100.00;103183.13;5047727;28;20039;-75
2023/01/22 06:27:23;;;;;;;25.65;11.18;;;;;;;-1.77;100.00;103180.47;5047695;28;20112;-75
2023/01/22 06:29:53;;;;;;;24.95;12.05;;;;;;;-1.77;100.00;103183.13;5016764;28;20029;-75
2023/01/22 06:32:19;;;;;;;25.40;12.68;;;;;;;-1.78;100.00;103178.66;5034219;28;20035;-74
2023/01/22 06:34:45;;;;;;;30.55;12.35;;;;;;;-1.74;100.00;103185.84;5028055;28;20408;-74
2023/01/22 06:37:11;;;;;;;26.35;12.00;;;;;;;-1.74;100.00;103176.94;5028258;28;20021;-75
2023/01/22 06:39:37;;;;;;;30.58;12.48;;;;;;;-1.74;100.00;103174.25;5030759;28;20033;-75
2023/01/22 06:42:09;;;;;;;22.58;10.85;;;;;;;-1.74;100.00;103168.94;5016490;28;20056;-75
2023/01/22 06:44:35;;;;;;;28.05;12.00;;;;;;;-1.74;100.00;103166.25;5032748;28;20520;-75
2023/01/22 06:47:00;;;;;;;29.23;12.10;;;;;;;-1.74;100.00;103175.16;5031535;28;20072;-75
2023/01/22 06:49:28;;;;;;;25.98;11.48;;;;;;;-1.71;100.00;103177.00;5032793;28;20484;-75
2023/01/22 06:51:53;;;;;;;27.67;10.82;;;;;;;-1.69;100.00;103184.13;5032677;28;20277;-75
2023/01/22 06:54:19;;;;;;;24.85;12.25;;;;;;;-1.69;100.00;103177.91;5031642;28;20029;-75
2023/01/22 06:56:44;;;;;;;28.65;13.73;;;;;;;-1.72;100.00;103189.44;5031238;28;20048;-75
2023/01/22 06:59:11;;;;;;;26.67;10.35;;;;;;;-1.69;100.00;103194.81;5031596;28;20412;-75
2023/01/22 07:01:37;;;;;;;27.75;11.43;;;;;;;-1.66;100.00;103184.19;5031091;28;20060;-75
2023/01/22 07:04:02;;;;;;;25.48;12.18;;;;;;;-1.66;100.00;103199.31;5015061;28;20147;-75
2023/01/22 07:06:27;;;;;;;27.25;11.05;;;;;;;-1.68;100.00;103183.28;5032533;28;20551;-75
2023/01/22 07:08:55;;;;;;;23.45;12.52;;;;;;;-1.66;100.00;103185.97;5033103;28;20104;-75
2023/01/22 07:11:20;;;;;;;24.17;11.07;;;;;;;-1.65;100.00;103187.75;5038312;28;20044;-75
2023/01/22 07:13:45;;;;;;;25.02;11.07;;;;;;;-1.64;100.00;103194.88;5047140;28;20026;-75
2023/01/22 07:16:11;;;;;;;31.98;12.68;;;;;;;-1.63;100.00;103197.59;5037301;28;20049;-75
2023/01/22 07:18:37;;;;;;;25.90;12.02;;;;;;;-1.60;100.00;103196.72;5032461;28;20042;-75
2023/01/22 07:21:04;;;;;;;30.02;14.82;;;;;;;-1.62;100.00;103186.03;5032444;28;20041;-75
2023/01/22 07:23:29;;;;;;;27.48;11.82;;;;;;;-1.61;100.00;103192.28;5032588;28;20040;-75
2023/01/22 07:25:55;;;;;;;18.48;9.68;;;;;;;-1.59;100.00;103195.84;5032272;28;20124;-75
2023/01/22 07:28:21;;;;;;;30.30;13.00;;;;;;;-1.62;100.00;103188.72;5032181;28;20038;-75
2023/01/22 07:30:46;;;;;;;23.05;11.23;;;;;;;-1.60;100.00;103191.38;5032204;28;20453;-75
2023/01/22 07:33:12;;;;;;;23.90;11.70;;;;;;;-1.59;100.00;103193.19;5033391;28;20041;-75
2023/01/22 07:35:38;;;;;;;27.08;12.65;;;;;;;-1.59;100.00;103190.50;5031731;28;20385;-74
2023/01/22 07:38:04;;;;;;;24.52;11.75;;;;;;;-1.56;100.00;103190.56;5032319;28;20032;-75
2023/01/22 07:40:29;;;;;;;24.90;12.20;;;;;;;-1.55;100.00;103197.69;5030940;28;20049;-75
2023/01/22 07:42:55;;;;;;;25.75;12.07;;;;;;;-1.56;100.00;103191.47;5031731;28;20049;-75
2023/01/22 07:45:23;;;;;;;23.98;10.93;;;;;;;-1.51;100.00;103201.31;5030792;28;20029;-74
2023/01/22 07:47:53;;;;;;;23.25;11.45;;;;;;;-1.56;100.00;103196.81;5031803;28;20033;-75
2023/01/22 07:50:20;;;;;;;23.88;11.95;;;;;;;-1.52;100.00;103197.75;5030419;28;20048;-75
2023/01/22 07:52:46;;;;;;;27.90;11.38;;;;;;;-1.52;100.00;103203.09;5031965;28;20095;-75
2023/01/22 07:55:12;;;;;;;20.30;11.35;;;;;;;-1.49;100.00;103205.81;5032465;28;20127;-75
2023/01/22 07:57:37;;;;;;;23.27;11.00;;;;;;;-1.51;100.00;103196.88;5031913;28;20026;-75
2023/01/22 08:00:03;;;;;;;22.90;11.85;;;;;;;-1.48;100.00;103201.38;5031777;28;20509;-75
2023/01/22 08:02:38;;;;;;;22.88;10.15;;;;;;;-1.46;100.00;103202.28;5039905;28;20113;-75
2023/01/22 08:05:05;;;;;;;21.48;10.65;;;;;;;-1.46;100.00;103213.84;5051718;28;20121;-74
2023/01/22 08:07:31;;;;;;;18.38;9.40;;;;;;;-1.43;100.00;103216.59;5051406;28;20037;-75
2023/01/22 08:09:56;;;;;;;21.60;11.48;;;;;;;-1.42;100.00;103202.34;5051435;28;20422;-75
2023/01/22 08:12:22;;;;;;;25.83;12.00;;;;;;;-1.38;100.00;103201.53;5050183;28;20108;-75
2023/01/22 08:14:47;;;;;;;24.33;11.10;;;;;;;-1.36;100.00;103207.78;5051636;28;20041;-75
2023/01/22 08:17:13;;;;;;;24.77;10.57;;;;;;;-1.30;100.00;103213.22;5038204;28;20040;-75
2023/01/22 08:19:38;;;;;;;20.30;10.77;;;;;;;-1.27;100.00;103208.78;5031585;28;20034;-75
2023/01/22 08:22:04;;;;;;;22.40;10.45;;;;;;;-1.21;100.00;103208.88;5031224;28;20366;-75
2023/01/22 08:24:30;;;;;;;23.85;10.90;;;;;;;-1.20;100.00;103203.56;5031189;28;20040;-75
2023/01/22 08:26:56;;;;;;;26.00;10.70;;;;;;;-1.15;100.00;103223.22;5031230;28;20044;-75
2023/01/22 08:29:21;;;;;;;21.27;10.40;;;;;;;-1.14;100.00;103217.00;5044868;28;20045;-75
2023/01/22 08:31:47;;;;;;;19.25;9.70;;;;;;;-1.11;100.00;103221.50;5045402;28;20037;-75
2023/01/22 08:34:12;;;;;;;17.65;9.95;;;;;;;-1.09;100.00;103219.75;5031325;28;20654;-75
2023/01/22 08:36:37;;;;;;;20.33;10.00;;;;;;;-1.08;100.00;103225.09;5030825;28;20048;-75
2023/01/22 08:39:03;;;;;;;21.65;10.85;;;;;;;-1.08;100.00;103227.75;5030826;28;20119;-75
2023/01/22 08:41:28;;;;;;;24.58;9.85;;;;;;;-1.11;100.00;103219.72;5030530;28;20602;-75
2023/01/22 08:43:54;;;;;;;14.32;7.90;;;;;;;-1.01;100.00;103225.19;5030336;28;20458;-75
2023/01/22 08:46:19;;;;;;;17.08;8.82;;;;;;;-1.02;100.00;103215.41;5030946;28;20385;-75
2023/01/22 08:48:45;;;;;;;17.02;8.43;;;;;;;-1.01;100.00;103226.09;5030145;28;20033;-76
2023/01/22 08:51:11;;;;;;;17.17;8.30;;;;;;;-1.02;100.00;103224.31;5030550;28;20374;-75
2023/01/22 08:53:36;;;;;;;18.17;9.00;;;;;;;-1.00;100.00;103221.66;5030404;28;20033;-75
2023/01/22 08:56:02;;;;;;;16.83;8.32;;;;;;;-0.98;100.00;103220.81;5030089;28;20120;-75
2023/01/22 08:58:27;;;;;;;16.13;9.00;;;;;;;-0.95;100.00;103223.50;5030046;28;20069;-75
2023/01/22 09:00:54;;;;;;;16.05;8.15;;;;;;;-0.93;100.00;103227.09;5027879;28;20377;-76
2023/01/22 09:03:20;;;;;;;18.02;8.80;;;;;;;-0.91;100.00;103227.13;5028441;28;20136;-76
2023/01/22 09:05:46;;;;;;;17.48;9.25;;;;;;;-0.91;100.00;103224.44;5028299;28;20512;-75
2023/01/22 09:08:11;;;;;;;16.35;7.88;;;;;;;-0.89;100.00;103228.00;5028984;28;20100;-75
2023/01/22 09:10:37;;;;;;;22.88;8.50;;;;;;;-0.92;100.00;103222.66;5029763;28;20052;-76
2023/01/22 09:13:03;;;;;;;26.08;8.65;;;;;;;-0.92;100.00;103223.53;5029807;28;20182;-75
2023/01/22 09:15:28;;;;;;;17.63;8.73;;;;;;;-0.92;100.00;103236.91;5045787;28;20112;-75
2023/01/22 09:17:54;;;;;;;16.95;8.57;;;;;;;-0.91;100.00;103230.69;5030578;28;20029;-76
2023/01/22 09:20:19;;;;;;;19.55;8.85;;;;;;;-0.90;100.00;103228.91;5029656;28;20612;-76
2023/01/22 09:22:45;;;;;;;21.58;8.70;;;;;;;-0.88;100.00;103227.16;5028280;28;20041;-75
2023/01/22 09:25:11;;;;;;;20.98;9.20;;;;;;;-0.85;100.00;103232.53;5029906;28;20425;-76
2023/01/22 09:27:37;;;;;;;15.05;8.98;;;;;;;-0.83;100.00;103231.69;5029244;28;20040;-76
2023/01/22 09:30:03;;;;;;;17.55;9.43;;;;;;;-0.81;100.00;103234.38;5028246;28;20033;-76
2023/01/22 09:32:28;;;;;;;15.35;9.18;;;;;;;-0.78;100.00;103239.75;5029346;28;20400;-76
2023/01/22 09:34:53;;;;;;;18.00;9.27;;;;;;;-0.80;100.00;103238.81;5029773;28;20065;-76
2023/01/22 09:37:19;;;;;;;16.65;8.65;;;;;;;-0.80;100.00;103236.16;5029157;28;20036;-76
2023/01/22 09:39:48;;;;;;;16.88;8.95;;;;;;;-0.79;100.00;103235.31;5047079;28;20059;-76
2023/01/22 09:42:21;;;;;;;17.48;8.52;;;;;;;-0.73;100.00;103239.81;5049228;28;20569;-75
2023/01/22 09:44:52;;;;;;;17.25;7.68;;;;;;;-0.71;100.00;103246.97;5041610;28;20550;-76
2023/01/22 09:47:26;;;;;;;17.40;7.70;;;;;;;-0.73;100.00;103246.06;5028895;28;20052;-76
2023/01/22 09:49:55;;;;;;;22.70;9.25;;;;;;;-0.68;100.00;103248.78;5029337;28;20382;-76
2023/01/22 09:52:25;;;;;;;18.60;9.35;;;;;;;-0.67;100.00;103248.81;5029316;28;20403;-76
2023/01/22 09:54:51;;;;;;;17.73;9.18;;;;;;;-0.66;100.00;103253.25;5036412;28;20033;-76
2023/01/22 09:57:16;;;;;;;14.00;7.13;;;;;;;-0.69;100.00;103250.56;5049160;28;20051;-76
2023/01/22 09:59:50;;;;;;;15.25;8.23;;;;;;;-0.71;100.00;103244.28;5038251;28;20060;-77
2023/01/22 10:02:25;;;;;;;17.52;8.55;;;;;;;-0.70;100.00;103246.13;5029120;28;20473;-76
2023/01/22 10:04:57;;;;;;;18.00;9.27;;;;;;;-0.73;100.00;103242.50;5045386;28;20036;-76
2023/01/22 10:07:29;;;;;;;16.38;8.60;;;;;;;-0.70;100.00;103242.50;5048955;28;20043;-76
2023/01/22 10:10:00;;;;;;;17.97;8.87;;;;;;;-0.66;100.00;103247.91;5041794;28;20095;-76
2023/01/22 10:12:30;;;;;;;16.13;8.07;;;;;;;-0.63;100.00;103242.63;5030339;28;20283;-76
2023/01/22 10:14:56;;;;;;;20.00;8.88;;;;;;;-0.58;100.00;103250.69;5032986;28;20431;-76
2023/01/22 10:17:27;;;;;;;17.65;8.52;;;;;;;-0.57;100.00;103255.16;5031446;28;20087;-76
2023/01/22 10:19:57;;;;;;;24.33;9.30;;;;;;;-0.58;100.00;103256.94;5033006;28;20037;-76
2023/01/22 10:22:24;;;;;;;17.20;8.85;;;;;;;-0.58;100.00;103250.69;5031393;28;20052;-76
2023/01/22 10:24:51;;;;;;;15.60;8.00;;;;;;;-0.58;100.00;103253.38;5031600;28;20083;-76
2023/01/22 10:27:21;;;;;;;16.17;8.60;;;;;;;-0.57;100.00;103252.50;5032649;28;20041;-76
2023/01/22 10:30:06;;;;;;;15.05;8.45;;;;;;;-0.59;100.00;103256.94;5032854;28;20137;-76
2023/01/22 10:32:31;;;;;;;18.70;8.60;;;;;;;-0.59;100.00;103246.25;5038649;28;20041;-75
2023/01/22 10:35:12;;;;;;;15.65;8.30;;;;;;;-0.57;100.00;103245.38;5031531;28;20075;-76
2023/01/22 10:37:46;;;;;;;17.83;9.30;;;;;;;-0.55;100.00;103245.41;5032592;28;20041;-76
2023/01/22 10:40:36;;;;;;;26.63;12.70;;;;;;;-0.49;100.00;103241.91;5032988;28;20397;-76
2023/01/22 10:43:16;;;;;;;23.55;10.15;;;;;;;-0.48;100.00;103243.69;5032321;28;20065;-76
2023/01/22 10:45:59;;;;;;;17.33;10.63;;;;;;;-0.48;100.00;103241.00;5031182;28;20033;-76
2023/01/22 10:48:25;;;;;;;16.45;9.60;;;;;;;-0.48;100.00;103249.03;5040163;28;20038;-76
2023/01/22 10:51:11;;;;;;;15.63;8.93;;;;;;;-0.48;100.00;103249.03;5031272;28;20098;-76
2023/01/22 10:53:43;;;;;;;14.73;8.60;;;;;;;-0.46;100.00;103247.28;5031026;28;20037;-76
2023/01/22 10:56:11;;;;;;;15.77;8.55;;;;;;;-0.47;100.00;103254.38;5032696;28;20041;-76
2023/01/22 10:58:39;;;;;;;14.50;8.40;;;;;;;-0.48;100.00;103249.03;5032349;28;20440;-76
2023/01/22 11:01:26;;;;;;;15.75;8.68;;;;;;;-0.48;100.00;103249.94;5030758;28;20124;-76
2023/01/22 11:03:51;;;;;;;16.90;9.15;;;;;;;-0.46;100.00;103258.00;5039762;28;20077;-75
2023/01/22 11:06:43;;;;;;;18.30;9.02;;;;;;;-0.46;100.00;103245.50;5030652;28;20047;-75
2023/01/22 11:09:19;;;;;;;15.20;9.30;;;;;;;-0.46;100.00;103240.16;5030812;28;20312;-76
2023/01/22 11:11:56;;;;;;;20.65;8.95;;;;;;;-0.44;100.00;103240.16;5031822;28;20098;-75
2023/01/22 11:14:28;;;;;;;18.02;8.98;;;;;;;-0.41;100.00;103226.84;5031607;28;20439;-76